sensor_id;sensor_type;location;lat;lon;timestamp;pressure;altitude;pressure_sealevel;temperature;humidity
39363;BME280;25088;43.238;23.110;2022-09-24T00:02:03;96847.16;;;9.08;68.04
39363;BME280;25088;43.238;23.110;2022-09-24T00:04:29;96853.22;;;9.10;67.27
39363;BME280;25088;43.238;23.110;2022-09-24T00:06:55;96860.88;;;9.13;67.94
39363;BME280;25088;43.238;23.110;2022-09-24T00:09:22;96851.41;;;9.16;67.71
39363;BME280;25088;43.238;23.110;2022-09-24T00:11:49;96841.94;;;9.18;67.33
39363;BME280;25088;43.238;23.110;2022-09-24T00:14:16;96847.88;;;9.15;66.91
39363;BME280;25088;43.238;23.110;2022-09-24T00:16:43;96851.31;;;9.11;67.96
39363;BME280;25088;43.238;23.110;2022-09-24T00:19:11;96843.97;;;9.11;67.34
39363;BME280;25088;43.238;23.110;2022-09-24T00:21:37;96835.78;;;9.11;67.12
39363;BME280;25088;43.238;23.110;2022-09-24T00:24:07;96839.34;;;9.12;67.40
39363;BME280;25088;43.238;23.110;2022-09-24T00:26:33;96841.72;;;9.08;66.49
39363;BME280;25088;43.238;23.110;2022-09-24T00:29:19;96837.34;;;9.07;66.72
39363;BME280;25088;43.238;23.110;2022-09-24T00:31:46;96839.31;;;9.23;65.49
39363;BME280;25088;43.238;23.110;2022-09-24T00:34:12;96817.81;;;9.10;66.00
39363;BME280;25088;43.238;23.110;2022-09-24T00:36:38;96831.41;;;9.10;66.74
39363;BME280;25088;43.238;23.110;2022-09-24T00:39:04;96826.44;;;9.07;66.47
39363;BME280;25088;43.238;23.110;2022-09-24T00:41:32;96819.69;;;8.98;66.74
39363;BME280;25088;43.238;23.110;2022-09-24T00:43:58;96823.84;;;9.00;66.25
39363;BME280;25088;43.238;23.110;2022-09-24T00:46:31;96819.81;;;9.03;66.45
39363;BME280;25088;43.238;23.110;2022-09-24T00:49:02;96819.56;;;9.04;65.77
39363;BME280;25088;43.238;23.110;2022-09-24T00:51:30;96801.97;;;8.95;65.33
39363;BME280;25088;43.238;23.110;2022-09-24T00:54:04;96810.47;;;9.11;65.62
39363;BME280;25088;43.238;23.110;2022-09-24T00:56:33;96801.84;;;8.90;65.57
39363;BME280;25088;43.238;23.110;2022-09-24T00:59:01;96818.63;;;8.99;65.18
39363;BME280;25088;43.238;23.110;2022-09-24T01:01:28;96814.25;;;8.98;65.36
39363;BME280;25088;43.238;23.110;2022-09-24T01:03:55;96804.28;;;9.03;64.61
39363;BME280;25088;43.238;23.110;2022-09-24T01:06:23;96808.88;;;9.15;64.28
39363;BME280;25088;43.238;23.110;2022-09-24T01:08:49;96810.69;;;9.09;64.10
39363;BME280;25088;43.238;23.110;2022-09-24T01:16:49;96805.50;;;8.96;64.75
39363;BME280;25088;43.238;23.110;2022-09-24T01:28:08;96805.50;;;8.84;63.34
39363;BME280;25088;43.238;23.110;2022-09-24T01:30:38;96801.47;;;8.87;62.79
39363;BME280;25088;43.238;23.110;2022-09-24T01:33:10;96809.66;;;8.87;62.72
39363;BME280;25088;43.238;23.110;2022-09-24T01:35:44;96809.38;;;9.00;61.87
39363;BME280;25088;43.238;23.110;2022-09-24T01:38:16;96811.66;;;8.79;62.45
39363;BME280;25088;43.238;23.110;2022-09-24T01:40:43;96777.94;;;8.69;62.90
39363;BME280;25088;43.238;23.110;2022-09-24T01:43:11;96803.63;;;8.73;63.06
39363;BME280;25088;43.238;23.110;2022-09-24T01:45:39;96797.81;;;8.69;62.70
39363;BME280;25088;43.238;23.110;2022-09-24T01:48:05;96808.59;;;8.76;63.35
39363;BME280;25088;43.238;23.110;2022-09-24T01:51:01;96796.16;;;8.57;63.06
39363;BME280;25088;43.238;23.110;2022-09-24T01:53:30;96810.84;;;8.56;64.02
39363;BME280;25088;43.238;23.110;2022-09-24T01:56:10;96818.75;;;8.57;63.30
39363;BME280;25088;43.238;23.110;2022-09-24T01:58:45;96814.03;;;8.52;63.67
39363;BME280;25088;43.238;23.110;2022-09-24T02:01:26;96816.63;;;8.47;63.84
39363;BME280;25088;43.238;23.110;2022-09-24T02:03:55;96823.34;;;8.45;63.39
39363;BME280;25088;43.238;23.110;2022-09-24T02:06:32;96817.88;;;8.33;63.85
39363;BME280;25088;43.238;23.110;2022-09-24T02:08:58;96818.84;;;8.39;63.44
39363;BME280;25088;43.238;23.110;2022-09-24T02:11:24;96818.16;;;8.43;63.55
39363;BME280;25088;43.238;23.110;2022-09-24T02:16:38;96827.06;;;8.50;62.52
39363;BME280;25088;43.238;23.110;2022-09-24T02:19:14;96776.81;;;8.23;62.85
39363;BME280;25088;43.238;23.110;2022-09-24T02:21:42;96826.31;;;8.43;62.42
39363;BME280;25088;43.238;23.110;2022-09-24T02:24:16;96819.94;;;8.49;62.10
39363;BME280;25088;43.238;23.110;2022-09-24T02:26:44;96819.09;;;8.49;62.29
39363;BME280;25088;43.238;23.110;2022-09-24T02:29:10;96815.44;;;8.43;62.68
39363;BME280;25088;43.238;23.110;2022-09-24T02:31:39;96827.38;;;8.42;62.76
39363;BME280;25088;43.238;23.110;2022-09-24T02:34:10;96823.34;;;8.45;62.41
39363;BME280;25088;43.238;23.110;2022-09-24T02:36:58;96829.41;;;8.47;62.48
39363;BME280;25088;43.238;23.110;2022-09-24T02:39:24;96827.03;;;8.39;63.56
39363;BME280;25088;43.238;23.110;2022-09-24T02:41:51;96829.56;;;8.22;64.38
39363;BME280;25088;43.238;23.110;2022-09-24T02:44:17;96828.13;;;8.19;62.98
39363;BME280;25088;43.238;23.110;2022-09-24T02:46:44;96827.22;;;8.25;62.66
39363;BME280;25088;43.238;23.110;2022-09-24T02:49:11;96825.91;;;8.28;63.14
39363;BME280;25088;43.238;23.110;2022-09-24T02:51:36;96839.72;;;8.15;64.61
39363;BME280;25088;43.238;23.110;2022-09-24T02:54:03;96827.31;;;8.19;64.05
39363;BME280;25088;43.238;23.110;2022-09-24T02:56:29;96827.91;;;8.21;63.32
39363;BME280;25088;43.238;23.110;2022-09-24T02:58:54;96827.19;;;8.14;63.27
39363;BME280;25088;43.238;23.110;2022-09-24T03:01:20;96834.31;;;8.26;62.98
39363;BME280;25088;43.238;23.110;2022-09-24T03:03:46;96835.19;;;8.39;62.45
39363;BME280;25088;43.238;23.110;2022-09-24T03:06:12;96842.59;;;8.32;62.73
39363;BME280;25088;43.238;23.110;2022-09-24T03:08:39;96830.41;;;8.34;62.43
39363;BME280;25088;43.238;23.110;2022-09-24T03:11:05;96822.50;;;8.33;61.99
39363;BME280;25088;43.238;23.110;2022-09-24T03:13:31;96840.38;;;8.40;61.87
39363;BME280;25088;43.238;23.110;2022-09-24T03:15:56;96839.63;;;8.33;62.32
39363;BME280;25088;43.238;23.110;2022-09-24T03:18:22;96840.94;;;8.31;63.21
39363;BME280;25088;43.238;23.110;2022-09-24T03:20:55;96846.38;;;8.31;62.23
39363;BME280;25088;43.238;23.110;2022-09-24T03:23:20;96844.72;;;8.29;61.60
39363;BME280;25088;43.238;23.110;2022-09-24T03:25:46;96839.75;;;8.26;61.81
39363;BME280;25088;43.238;23.110;2022-09-24T03:28:11;96841.53;;;8.33;61.92
39363;BME280;25088;43.238;23.110;2022-09-24T03:30:36;96838.56;;;8.34;61.71
39363;BME280;25088;43.238;23.110;2022-09-24T03:33:20;96834.19;;;8.21;62.83
39363;BME280;25088;43.238;23.110;2022-09-24T03:35:46;96838.69;;;8.27;62.56
39363;BME280;25088;43.238;23.110;2022-09-24T03:38:11;96829.53;;;8.10;63.87
39363;BME280;25088;43.238;23.110;2022-09-24T03:40:37;96848.81;;;8.20;63.25
39363;BME280;25088;43.238;23.110;2022-09-24T03:43:02;96830.00;;;8.07;63.72
39363;BME280;25088;43.238;23.110;2022-09-24T03:45:28;96822.28;;;7.92;63.93
39363;BME280;25088;43.238;23.110;2022-09-24T03:47:53;96846.69;;;8.11;64.13
39363;BME280;25088;43.238;23.110;2022-09-24T03:50:19;96843.47;;;8.02;64.27
39363;BME280;25088;43.238;23.110;2022-09-24T03:52:45;96832.50;;;7.78;65.04
39363;BME280;25088;43.238;23.110;2022-09-24T03:55:10;96846.59;;;7.87;64.06
39363;BME280;25088;43.238;23.110;2022-09-24T03:57:36;96844.28;;;7.91;64.86
39363;BME280;25088;43.238;23.110;2022-09-24T04:00:01;96845.94;;;8.03;64.43
39363;BME280;25088;43.238;23.110;2022-09-24T04:02:27;96838.63;;;8.04;64.72
39363;BME280;25088;43.238;23.110;2022-09-24T04:04:52;96846.81;;;8.16;64.14
39363;BME280;25088;43.238;23.110;2022-09-24T04:07:18;96830.94;;;8.01;64.90
39363;BME280;25088;43.238;23.110;2022-09-24T04:09:43;96835.44;;;8.07;64.81
39363;BME280;25088;43.238;23.110;2022-09-24T04:12:09;96854.97;;;8.16;64.68
39363;BME280;25088;43.238;23.110;2022-09-24T04:14:34;96835.91;;;8.04;65.35
39363;BME280;25088;43.238;23.110;2022-09-24T04:16:59;96849.16;;;8.12;64.66
39363;BME280;25088;43.238;23.110;2022-09-24T04:19:25;96841.06;;;7.94;64.89
39363;BME280;25088;43.238;23.110;2022-09-24T04:21:56;96850.19;;;7.99;65.35
39363;BME280;25088;43.238;23.110;2022-09-24T04:24:21;96853.41;;;8.08;65.60
39363;BME280;25088;43.238;23.110;2022-09-24T04:26:47;96852.22;;;8.04;65.74
39363;BME280;25088;43.238;23.110;2022-09-24T04:29:12;96828.41;;;7.88;65.88
39363;BME280;25088;43.238;23.110;2022-09-24T04:31:38;96849.34;;;7.99;66.56
39363;BME280;25088;43.238;23.110;2022-09-24T04:34:04;96834.44;;;7.90;66.66
39363;BME280;25088;43.238;23.110;2022-09-24T04:36:30;96857.56;;;8.11;66.40
39363;BME280;25088;43.238;23.110;2022-09-24T04:38:55;96859.34;;;8.17;65.66
39363;BME280;25088;43.238;23.110;2022-09-24T04:41:21;96858.19;;;8.24;66.06
39363;BME280;25088;43.238;23.110;2022-09-24T04:43:47;96858.44;;;8.35;65.88
39363;BME280;25088;43.238;23.110;2022-09-24T04:46:12;96869.84;;;8.43;65.78
39363;BME280;25088;43.238;23.110;2022-09-24T04:48:38;96857.81;;;8.51;65.19
39363;BME280;25088;43.238;23.110;2022-09-24T04:51:07;96861.47;;;8.68;64.25
39363;BME280;25088;43.238;23.110;2022-09-24T04:53:35;96850.00;;;8.90;64.33
39363;BME280;25088;43.238;23.110;2022-09-24T04:56:05;96855.22;;;9.03;63.80
39363;BME280;25088;43.238;23.110;2022-09-24T04:58:37;96852.22;;;9.28;62.88
39363;BME280;25088;43.238;23.110;2022-09-24T05:01:03;96857.88;;;9.50;62.39
39363;BME280;25088;43.238;23.110;2022-09-24T05:03:28;96853.06;;;9.69;61.25
39363;BME280;25088;43.238;23.110;2022-09-24T05:05:54;96847.69;;;9.86;61.43
39363;BME280;25088;43.238;23.110;2022-09-24T05:08:21;96856.19;;;9.89;61.10
39363;BME280;25088;43.238;23.110;2022-09-24T05:10:46;96840.47;;;10.08;59.89
39363;BME280;25088;43.238;23.110;2022-09-24T05:13:12;96841.28;;;10.37;59.70
39363;BME280;25088;43.238;23.110;2022-09-24T05:15:37;96841.06;;;10.55;59.28
39363;BME280;25088;43.238;23.110;2022-09-24T05:18:03;96842.28;;;10.81;58.64
39363;BME280;25088;43.238;23.110;2022-09-24T05:20:30;96822.91;;;11.00;58.48
39363;BME280;25088;43.238;23.110;2022-09-24T05:22:56;96841.78;;;11.23;57.60
39363;BME280;25088;43.238;23.110;2022-09-24T05:25:22;96843.66;;;11.39;56.92
39363;BME280;25088;43.238;23.110;2022-09-24T05:27:52;96835.41;;;11.56;56.68
39363;BME280;25088;43.238;23.110;2022-09-24T05:30:21;96835.16;;;11.80;56.29
39363;BME280;25088;43.238;23.110;2022-09-24T05:32:47;96846.72;;;12.09;54.75
39363;BME280;25088;43.238;23.110;2022-09-24T05:35:16;96833.44;;;12.23;55.47
39363;BME280;25088;43.238;23.110;2022-09-24T05:37:43;96840.91;;;12.32;56.04
39363;BME280;25088;43.238;23.110;2022-09-24T05:40:10;96834.81;;;12.52;56.17
39363;BME280;25088;43.238;23.110;2022-09-24T05:43:01;96837.59;;;12.89;55.22
39363;BME280;25088;43.238;23.110;2022-09-24T05:45:28;96841.25;;;13.05;54.41
39363;BME280;25088;43.238;23.110;2022-09-24T05:47:54;96843.25;;;13.20;53.48
39363;BME280;25088;43.238;23.110;2022-09-24T05:50:19;96838.22;;;13.44;54.01
39363;BME280;25088;43.238;23.110;2022-09-24T05:52:45;96838.25;;;13.49;54.55
39363;BME280;25088;43.238;23.110;2022-09-24T05:55:11;96842.47;;;13.77;54.23
39363;BME280;25088;43.238;23.110;2022-09-24T05:57:37;96832.97;;;14.00;52.66
39363;BME280;25088;43.238;23.110;2022-09-24T06:00:04;96844.31;;;14.39;50.70
39363;BME280;25088;43.238;23.110;2022-09-24T06:02:30;96839.16;;;14.68;50.84
39363;BME280;25088;43.238;23.110;2022-09-24T06:04:55;96844.09;;;14.71;51.46
39363;BME280;25088;43.238;23.110;2022-09-24T06:07:21;96843.84;;;14.83;51.57
39363;BME280;25088;43.238;23.110;2022-09-24T06:09:46;96843.28;;;15.07;51.07
39363;BME280;25088;43.238;23.110;2022-09-24T06:12:13;96838.22;;;15.49;49.67
39363;BME280;25088;43.238;23.110;2022-09-24T06:14:39;96834.56;;;15.85;49.07
39363;BME280;25088;43.238;23.110;2022-09-24T06:17:07;96827.84;;;16.11;48.73
39363;BME280;25088;43.238;23.110;2022-09-24T06:19:33;96839.09;;;16.59;46.82
39363;BME280;25088;43.238;23.110;2022-09-24T06:21:58;96848.78;;;16.96;46.56
39363;BME280;25088;43.238;23.110;2022-09-24T06:24:24;96845.91;;;17.35;45.02
39363;BME280;25088;43.238;23.110;2022-09-24T06:26:50;96840.56;;;17.73;43.93
39363;BME280;25088;43.238;23.110;2022-09-24T06:29:16;96838.56;;;18.02;43.85
39363;BME280;25088;43.238;23.110;2022-09-24T06:31:42;96821.13;;;18.26;43.34
39363;BME280;25088;43.238;23.110;2022-09-24T06:34:09;96832.03;;;18.55;41.92
39363;BME280;25088;43.238;23.110;2022-09-24T06:36:34;96838.66;;;18.92;41.44
39363;BME280;25088;43.238;23.110;2022-09-24T06:39:00;96828.59;;;19.15;39.11
39363;BME280;25088;43.238;23.110;2022-09-24T06:41:25;96824.66;;;19.34;36.47
39363;BME280;25088;43.238;23.110;2022-09-24T06:43:53;96826.72;;;19.56;36.62
39363;BME280;25088;43.238;23.110;2022-09-24T06:46:18;96808.81;;;19.81;36.69
39363;BME280;25088;43.238;23.110;2022-09-24T06:48:47;96823.47;;;20.09;37.28
39363;BME280;25088;43.238;23.110;2022-09-24T06:51:12;96831.47;;;20.25;35.85
39363;BME280;25088;43.238;23.110;2022-09-24T06:53:38;96836.66;;;20.40;36.89
39363;BME280;25088;43.238;23.110;2022-09-24T06:56:03;96819.63;;;20.47;34.78
39363;BME280;25088;43.238;23.110;2022-09-24T06:58:29;96827.66;;;20.71;35.00
39363;BME280;25088;43.238;23.110;2022-09-24T07:00:57;96825.13;;;20.83;34.10
39363;BME280;25088;43.238;23.110;2022-09-24T07:03:24;96833.28;;;21.02;34.44
39363;BME280;25088;43.238;23.110;2022-09-24T07:05:50;96831.59;;;21.14;33.95
39363;BME280;25088;43.238;23.110;2022-09-24T07:08:16;96840.06;;;21.09;34.67
39363;BME280;25088;43.238;23.110;2022-09-24T07:10:46;96834.09;;;21.25;34.89
39363;BME280;25088;43.238;23.110;2022-09-24T07:13:14;96821.53;;;21.27;34.39
39363;BME280;25088;43.238;23.110;2022-09-24T07:15:41;96829.81;;;21.41;34.13
39363;BME280;25088;43.238;23.110;2022-09-24T07:18:07;96826.41;;;21.44;34.59
39363;BME280;25088;43.238;23.110;2022-09-24T07:20:32;96834.78;;;21.53;34.01
39363;BME280;25088;43.238;23.110;2022-09-24T07:23:04;96844.03;;;21.71;33.24
39363;BME280;25088;43.238;23.110;2022-09-24T07:25:30;96844.22;;;21.74;33.41
39363;BME280;25088;43.238;23.110;2022-09-24T07:28:06;96843.25;;;21.87;33.31
39363;BME280;25088;43.238;23.110;2022-09-24T07:30:33;96842.69;;;21.99;33.23
39363;BME280;25088;43.238;23.110;2022-09-24T07:32:59;96846.19;;;22.13;32.47
39363;BME280;25088;43.238;23.110;2022-09-24T07:35:25;96841.63;;;22.26;32.07
39363;BME280;25088;43.238;23.110;2022-09-24T07:38:03;96841.16;;;22.33;33.24
39363;BME280;25088;43.238;23.110;2022-09-24T07:40:30;96838.53;;;22.36;33.58
39363;BME280;25088;43.238;23.110;2022-09-24T07:42:56;96837.25;;;22.34;33.12
39363;BME280;25088;43.238;23.110;2022-09-24T07:45:23;96829.56;;;22.39;32.83
39363;BME280;25088;43.238;23.110;2022-09-24T07:47:59;96835.31;;;22.60;31.96
39363;BME280;25088;43.238;23.110;2022-09-24T07:50:26;96833.50;;;22.82;32.34
39363;BME280;25088;43.238;23.110;2022-09-24T07:52:52;96836.97;;;23.05;31.48
39363;BME280;25088;43.238;23.110;2022-09-24T07:55:17;96846.50;;;23.12;31.45
39363;BME280;25088;43.238;23.110;2022-09-24T07:57:50;96838.63;;;23.14;31.66
39363;BME280;25088;43.238;23.110;2022-09-24T08:00:17;96845.66;;;23.12;30.64
39363;BME280;25088;43.238;23.110;2022-09-24T08:02:44;96847.31;;;23.13;31.08
39363;BME280;25088;43.238;23.110;2022-09-24T08:05:11;96845.16;;;23.18;29.90
39363;BME280;25088;43.238;23.110;2022-09-24T08:07:37;96829.44;;;23.23;29.95
39363;BME280;25088;43.238;23.110;2022-09-24T08:10:03;96828.09;;;23.37;31.24
39363;BME280;25088;43.238;23.110;2022-09-24T08:12:28;96848.25;;;23.26;30.99
39363;BME280;25088;43.238;23.110;2022-09-24T08:14:55;96844.78;;;23.63;30.48
39363;BME280;25088;43.238;23.110;2022-09-24T08:17:20;96845.50;;;23.90;31.59
39363;BME280;25088;43.238;23.110;2022-09-24T08:19:46;96835.53;;;23.71;31.60
39363;BME280;25088;43.238;23.110;2022-09-24T08:22:12;96842.53;;;23.86;30.70
39363;BME280;25088;43.238;23.110;2022-09-24T08:24:41;96831.19;;;24.00;29.15
39363;BME280;25088;43.238;23.110;2022-09-24T08:27:08;96838.78;;;24.20;29.50
39363;BME280;25088;43.238;23.110;2022-09-24T08:29:33;96826.75;;;24.37;28.64
39363;BME280;25088;43.238;23.110;2022-09-24T08:31:59;96833.22;;;24.50;29.00
39363;BME280;25088;43.238;23.110;2022-09-24T08:34:25;96832.56;;;24.74;28.89
39363;BME280;25088;43.238;23.110;2022-09-24T08:36:50;96829.41;;;24.75;29.11
39363;BME280;25088;43.238;23.110;2022-09-24T08:39:16;96827.22;;;24.60;29.75
39363;BME280;25088;43.238;23.110;2022-09-24T08:41:56;96832.16;;;24.84;28.03
39363;BME280;25088;43.238;23.110;2022-09-24T08:44:38;96829.75;;;24.95;28.87
39363;BME280;25088;43.238;23.110;2022-09-24T08:50:21;96825.94;;;24.99;27.71
39363;BME280;25088;43.238;23.110;2022-09-24T08:55:24;96834.19;;;24.75;29.13
39363;BME280;25088;43.238;23.110;2022-09-24T09:03:48;96825.00;;;24.54;28.82
39363;BME280;25088;43.238;23.110;2022-09-24T09:09:19;96811.84;;;24.75;28.43
39363;BME280;25088;43.238;23.110;2022-09-24T09:11:58;96813.84;;;25.16;28.91
39363;BME280;25088;43.238;23.110;2022-09-24T09:17:03;96809.75;;;25.47;27.67
39363;BME280;25088;43.238;23.110;2022-09-24T09:19:34;96805.03;;;25.26;27.63
39363;BME280;25088;43.238;23.110;2022-09-24T09:22:04;96799.16;;;25.52;27.70
39363;BME280;25088;43.238;23.110;2022-09-24T09:24:40;96798.19;;;25.94;27.18
39363;BME280;25088;43.238;23.110;2022-09-24T09:27:13;96799.00;;;26.07;27.56
39363;BME280;25088;43.238;23.110;2022-09-24T09:29:41;96804.97;;;26.17;27.23
39363;BME280;25088;43.238;23.110;2022-09-24T09:35:29;96799.59;;;25.88;27.44
39363;BME280;25088;43.238;23.110;2022-09-24T09:43:01;96785.13;;;26.22;27.43
39363;BME280;25088;43.238;23.110;2022-09-24T09:45:34;96790.47;;;26.52;26.87
39363;BME280;25088;43.238;23.110;2022-09-24T09:48:02;96781.53;;;26.87;26.79
39363;BME280;25088;43.238;23.110;2022-09-24T09:52:56;96776.25;;;26.85;26.63
39363;BME280;25088;43.238;23.110;2022-09-24T09:55:34;96768.44;;;26.91;26.56
39363;BME280;25088;43.238;23.110;2022-09-24T09:58:17;96755.44;;;27.11;25.76
39363;BME280;25088;43.238;23.110;2022-09-24T10:00:44;96776.97;;;27.22;26.16
39363;BME280;25088;43.238;23.110;2022-09-24T10:03:28;96767.13;;;27.44;26.11
39363;BME280;25088;43.238;23.110;2022-09-24T10:05:57;96774.84;;;27.47;26.34
39363;BME280;25088;43.238;23.110;2022-09-24T10:08:24;96775.34;;;27.81;26.26
39363;BME280;25088;43.238;23.110;2022-09-24T10:10:54;96780.78;;;28.05;25.40
39363;BME280;25088;43.238;23.110;2022-09-24T10:13:21;96786.94;;;27.36;25.63
39363;BME280;25088;43.238;23.110;2022-09-24T10:18:14;96793.50;;;26.59;26.61
39363;BME280;25088;43.238;23.110;2022-09-24T10:20:45;96790.75;;;26.87;26.88
39363;BME280;25088;43.238;23.110;2022-09-24T10:23:19;96791.22;;;27.17;26.31
39363;BME280;25088;43.238;23.110;2022-09-24T10:25:57;96783.44;;;27.11;26.50
39363;BME280;25088;43.238;23.110;2022-09-24T10:28:23;96780.81;;;27.46;26.97
39363;BME280;25088;43.238;23.110;2022-09-24T10:31:28;96758.56;;;27.69;25.91
39363;BME280;25088;43.238;23.110;2022-09-24T10:33:56;96764.63;;;28.18;25.92
39363;BME280;25088;43.238;23.110;2022-09-24T10:36:28;96760.22;;;28.01;26.84
39363;BME280;25088;43.238;23.110;2022-09-24T10:39:11;96750.00;;;27.93;25.94
39363;BME280;25088;43.238;23.110;2022-09-24T10:41:37;96753.88;;;27.89;26.64
39363;BME280;25088;43.238;23.110;2022-09-24T10:44:10;96763.66;;;28.11;25.57
39363;BME280;25088;43.238;23.110;2022-09-24T10:55:06;96756.84;;;28.12;25.76
39363;BME280;25088;43.238;23.110;2022-09-24T11:00:18;96743.19;;;28.80;25.19
39363;BME280;25088;43.238;23.110;2022-09-24T11:05:35;96746.09;;;29.03;24.74
39363;BME280;25088;43.238;23.110;2022-09-24T11:08:22;96744.88;;;29.24;24.26
39363;BME280;25088;43.238;23.110;2022-09-24T11:10:59;96738.66;;;29.34;24.41
39363;BME280;25088;43.238;23.110;2022-09-24T11:22:02;96740.03;;;29.01;24.77
39363;BME280;25088;43.238;23.110;2022-09-24T11:35:38;96719.13;;;28.44;25.18
39363;BME280;25088;43.238;23.110;2022-09-24T11:38:20;96719.09;;;28.79;25.24
39363;BME280;25088;43.238;23.110;2022-09-24T11:40:56;96712.41;;;28.88;25.01
39363;BME280;25088;43.238;23.110;2022-09-24T11:57:29;96713.38;;;29.34;24.94
39363;BME280;25088;43.238;23.110;2022-09-24T12:00:06;96714.56;;;29.56;24.30
39363;BME280;25088;43.238;23.110;2022-09-24T12:02:36;96719.50;;;29.63;24.49
39363;BME280;25088;43.238;23.110;2022-09-24T12:05:32;96715.09;;;29.88;24.02
39363;BME280;25088;43.238;23.110;2022-09-24T12:08:03;96712.53;;;30.02;24.19
39363;BME280;25088;43.238;23.110;2022-09-24T12:10:39;96714.94;;;30.27;23.59
39363;BME280;25088;43.238;23.110;2022-09-24T12:13:20;96719.72;;;30.53;23.42
39363;BME280;25088;43.238;23.110;2022-09-24T12:15:54;96716.22;;;30.33;24.11
39363;BME280;25088;43.238;23.110;2022-09-24T12:18:59;96732.00;;;30.37;23.32
39363;BME280;25088;43.238;23.110;2022-09-24T12:21:37;96735.28;;;29.48;24.11
39363;BME280;25088;43.238;23.110;2022-09-24T12:24:34;96730.13;;;29.73;23.78
39363;BME280;25088;43.238;23.110;2022-09-24T12:27:13;96716.38;;;29.91;24.48
39363;BME280;25088;43.238;23.110;2022-09-24T12:32:42;96720.06;;;29.72;24.28
39363;BME280;25088;43.238;23.110;2022-09-24T12:35:32;96711.47;;;29.87;23.81
39363;BME280;25088;43.238;23.110;2022-09-24T12:43:53;96728.19;;;29.77;23.60
39363;BME280;25088;43.238;23.110;2022-09-24T12:46:30;96722.22;;;30.05;24.17
39363;BME280;25088;43.238;23.110;2022-09-24T12:48:58;96719.56;;;29.89;24.04
39363;BME280;25088;43.238;23.110;2022-09-24T12:51:33;96714.59;;;29.36;24.66
39363;BME280;25088;43.238;23.110;2022-09-24T12:57:18;96711.28;;;28.34;25.46
39363;BME280;25088;43.238;23.110;2022-09-24T13:02:45;96703.72;;;28.03;25.87
39363;BME280;25088;43.238;23.110;2022-09-24T13:08:03;96713.25;;;27.67;26.30
39363;BME280;25088;43.238;23.110;2022-09-24T13:10:57;96703.31;;;27.85;26.22
39363;BME280;25088;43.238;23.110;2022-09-24T13:13:29;96709.25;;;27.68;26.63
39363;BME280;25088;43.238;23.110;2022-09-24T13:16:03;96697.38;;;27.11;27.06
39363;BME280;25088;43.238;23.110;2022-09-24T13:18:31;96710.59;;;27.11;27.60
39363;BME280;25088;43.238;23.110;2022-09-24T13:21:21;96691.97;;;27.18;26.17
39363;BME280;25088;43.238;23.110;2022-09-24T13:23:49;96684.47;;;27.38;25.97
39363;BME280;25088;43.238;23.110;2022-09-24T13:26:25;96702.13;;;27.70;25.66
39363;BME280;25088;43.238;23.110;2022-09-24T13:28:54;96698.31;;;27.78;25.66
39363;BME280;25088;43.238;23.110;2022-09-24T13:31:32;96695.78;;;28.24;26.01
39363;BME280;25088;43.238;23.110;2022-09-24T13:34:16;96691.72;;;28.76;25.40
39363;BME280;25088;43.238;23.110;2022-09-24T13:36:51;96698.25;;;29.00;25.26
39363;BME280;25088;43.238;23.110;2022-09-24T13:39:19;96701.66;;;29.32;25.03
39363;BME280;25088;43.238;23.110;2022-09-24T13:42:07;96700.50;;;29.56;25.07
39363;BME280;25088;43.238;23.110;2022-09-24T13:44:42;96700.88;;;29.77;24.63
39363;BME280;25088;43.238;23.110;2022-09-24T13:50:16;96691.91;;;29.95;24.34
39363;BME280;25088;43.238;23.110;2022-09-24T13:52:48;96683.03;;;29.47;24.15
39363;BME280;25088;43.238;23.110;2022-09-24T13:55:22;96683.97;;;29.77;23.85
39363;BME280;25088;43.238;23.110;2022-09-24T13:57:48;96658.97;;;29.26;24.20
39363;BME280;25088;43.238;23.110;2022-09-24T14:00:22;96671.09;;;28.69;24.83
39363;BME280;25088;43.238;23.110;2022-09-24T14:03:16;96675.69;;;28.57;25.39
39363;BME280;25088;43.238;23.110;2022-09-24T14:05:43;96684.34;;;27.98;25.69
39363;BME280;25088;43.238;23.110;2022-09-24T14:08:12;96682.75;;;27.65;26.42
39363;BME280;25088;43.238;23.110;2022-09-24T14:10:40;96688.72;;;27.48;25.94
39363;BME280;25088;43.238;23.110;2022-09-24T14:15:34;96682.69;;;27.02;27.02
39363;BME280;25088;43.238;23.110;2022-09-24T14:18:00;96674.19;;;26.98;27.40
39363;BME280;25088;43.238;23.110;2022-09-24T14:20:29;96684.03;;;26.64;27.61
39363;BME280;25088;43.238;23.110;2022-09-24T14:22:55;96678.66;;;26.71;27.71
39363;BME280;25088;43.238;23.110;2022-09-24T14:25:33;96676.09;;;26.66;28.33
39363;BME280;25088;43.238;23.110;2022-09-24T14:28:00;96685.97;;;26.76;27.76
39363;BME280;25088;43.238;23.110;2022-09-24T14:30:29;96681.88;;;26.73;28.01
39363;BME280;25088;43.238;23.110;2022-09-24T14:33:01;96673.44;;;26.86;27.38
39363;BME280;25088;43.238;23.110;2022-09-24T14:35:33;96685.00;;;26.56;28.27
39363;BME280;25088;43.238;23.110;2022-09-24T14:38:04;96685.72;;;26.81;28.54
39363;BME280;25088;43.238;23.110;2022-09-24T14:41:05;96680.78;;;26.62;28.85
39363;BME280;25088;43.238;23.110;2022-09-24T14:46:43;96682.84;;;27.21;28.51
39363;BME280;25088;43.238;23.110;2022-09-24T14:51:52;96681.59;;;27.50;27.28
39363;BME280;25088;43.238;23.110;2022-09-24T14:56:50;96685.09;;;27.95;26.54
39363;BME280;25088;43.238;23.110;2022-09-24T14:59:27;96691.44;;;27.92;26.26
39363;BME280;25088;43.238;23.110;2022-09-24T15:04:42;96688.78;;;28.15;26.54
39363;BME280;25088;43.238;23.110;2022-09-24T15:07:20;96682.44;;;28.02;27.69
39363;BME280;25088;43.238;23.110;2022-09-24T15:09:55;96679.31;;;27.88;28.07
39363;BME280;25088;43.238;23.110;2022-09-24T15:12:24;96689.63;;;27.52;28.27
39363;BME280;25088;43.238;23.110;2022-09-24T15:14:59;96687.13;;;27.03;29.64
39363;BME280;25088;43.238;23.110;2022-09-24T15:17:35;96676.34;;;26.61;30.12